Portada
METAR-TAF:

METAR-TAF

Aeropuertos :

Aeropuerto de Växjö-Småland

Växjö, Suecia

latitud: 56-51N, longitud: 014-50E, altitud: 199 m

Observación

El informe se hizo hace 24 minutos, a las 11:20 UTC
Viento 5 kt del oeste-noroeste, variando entre oeste-suroeste y norte-noroeste
Temperatura 17°C
Humedad 72%
Presión 1024 hPa
Visibilidad 10 km o más

METAR: ESMX 191120Z AUTO 30005KT 250V340 9999 NCD 17/12 Q1024

Hora: 13:44 (11:44 UTC)

Pronóstico

El informe se hizo hace 14 minutos, a las 11:30 UTC
Pronóstico válido del 18 a las 12 UTC al 18 a las 15 UTC
Viento 12 kt del oeste-suroeste
Visibilidad 10 km o más
sin nubes por debajo de 1500 m y sin presencia de cumulonimbus.

TAF: ESMX 181130Z 1812/1815 25012KT CAVOK

Observaciones y pronósticos meteorológicos de más de 4000 aeropuertos (mensajes METAR y TAF).

Los puntos amarillos y rojos representan las estaciones disponibles.

Ponga el ratón en el punto deseado para ver el nombre de la estación.

Haga clic para ver las observaciones y los pronósticos meteorológicos.

Para cambiar el mapa : haga clic en los botones verdes con una cruz de color negro para hacer un zoom, en el botón verde con un guión para alejar o en las flechas verdes para mapas adyacentes.


METAR-TAF: